Time,TemperatureF,DewpointF,PressureIn,WindDirection,WindDirectionDegrees,WindSpeedMPH,WindSpeedGustMPH,Humidity,HourlyPrecipIn,Conditions,Clouds,dailyrainin,SoftwareType,DateUTC
2013-01-09 00:00:00,30.0,25.2,30.32,SSW,212,3.0,3.0,82,0.00,,,0.00,Wunderground v.1.15,2013-01-09 04:00:00,
2013-01-09 00:10:00,29.8,25.0,30.33,SW,214,3.0,3.0,82,0.00,,,0.00,Wunderground v.1.15,2013-01-09 04:10:00,
2013-01-09 00:20:00,29.8,25.0,30.33,West,274,3.0,22.0,82,0.00,,,0.00,Wunderground v.1.15,2013-01-09 04:20:00,
2013-01-09 00:30:00,29.6,25.1,30.33,South,190,3.0,3.0,83,0.00,,,0.00,Wunderground v.1.15,2013-01-09 04:30:00,
2013-01-09 00:40:00,29.3,24.8,30.33,SW,231,2.0,22.0,83,0.00,,,0.00,Wunderground v.1.15,2013-01-09 04:40:00,
2013-01-09 00:50:00,29.4,25.2,30.34,West,280,3.0,3.0,84,0.00,,,0.00,Wunderground v.1.15,2013-01-09 04:50:00,
2013-01-09 01:00:00,29.4,24.9,30.34,SSW,197,4.0,4.0,83,0.00,,,0.00,Wunderground v.1.15,2013-01-09 05:00:00,
2013-01-09 01:10:00,29.4,24.9,30.34,South,186,3.0,22.0,83,0.00,,,0.00,Wunderground v.1.15,2013-01-09 05:10:00,
2013-01-09 01:20:00,29.3,25.1,30.35,SW,222,3.0,22.0,84,0.00,,,0.00,Wunderground v.1.15,2013-01-09 05:20:00,
2013-01-09 01:30:00,29.1,24.9,30.35,SW,218,3.0,22.0,84,0.00,,,0.00,Wunderground v.1.15,2013-01-09 05:30:00,
2013-01-09 01:40:00,29.0,24.8,30.36,SW,226,3.0,22.0,84,0.00,,,0.00,Wunderground v.1.15,2013-01-09 05:40:00,
2013-01-09 01:50:00,28.9,24.7,30.36,SW,222,3.0,22.0,84,0.00,,,0.00,Wunderground v.1.15,2013-01-09 05:50:00,
2013-01-09 02:00:00,28.6,24.7,30.37,SSW,207,2.0,22.0,85,0.00,,,0.00,Wunderground v.1.15,2013-01-09 06:00:00,
2013-01-09 02:10:00,28.7,24.8,30.37,WSW,243,2.0,2.0,85,0.00,,,0.00,Wunderground v.1.15,2013-01-09 06:10:00,
2013-01-09 02:20:00,28.6,24.7,30.38,SW,229,2.0,22.0,85,0.00,,,0.00,Wunderground v.1.15,2013-01-09 06:20:00,
2013-01-09 02:30:00,28.6,24.7,30.38,WSW,246,2.0,22.0,85,0.00,,,0.00,Wunderground v.1.15,2013-01-09 06:30:00,
2013-01-09 02:40:00,28.6,24.7,30.39,SW,228,3.0,22.0,85,0.00,,,0.00,Wunderground v.1.15,2013-01-09 06:40:00,
2013-01-09 02:50:00,28.4,24.5,30.39,SW,214,3.0,3.0,85,0.00,,,0.00,Wunderground v.1.15,2013-01-09 06:50:00,
2013-01-09 03:00:00,28.3,24.6,30.40,SW,217,2.0,22.0,86,0.00,,,0.00,Wunderground v.1.15,2013-01-09 07:00:00,
2013-01-09 03:10:00,28.0,24.4,30.40,SSW,200,2.0,2.0,86,0.00,,,0.00,Wunderground v.1.15,2013-01-09 07:10:00,
2013-01-09 03:20:00,27.6,24.0,30.41,SW,218,2.0,2.0,86,0.00,,,0.00,Wunderground v.1.15,2013-01-09 07:20:00,
2013-01-09 03:30:00,27.2,23.6,30.41,SSW,205,2.0,2.0,86,0.00,,,0.00,Wunderground v.1.15,2013-01-09 07:30:00,
2013-01-09 03:40:00,27.3,23.9,30.41,SW,226,2.0,2.0,87,0.00,,,0.00,Wunderground v.1.15,2013-01-09 07:40:00,
2013-01-09 03:50:00,27.2,23.8,30.41,SSW,210,1.0,22.0,87,0.00,,,0.00,Wunderground v.1.15,2013-01-09 07:50:00,
2013-01-09 04:00:00,27.3,23.9,30.40,WSW,237,2.0,22.0,87,0.00,,,0.00,Wunderground v.1.15,2013-01-09 08:00:00,
2013-01-09 04:10:00,27.3,23.9,30.41,SSE,166,2.0,22.0,87,0.00,,,0.00,Wunderground v.1.15,2013-01-09 08:10:00,
2013-01-09 04:20:00,27.4,24.0,30.41,WNW,283,2.0,2.0,87,0.00,,,0.00,Wunderground v.1.15,2013-01-09 08:20:00,
2013-01-09 04:30:00,27.4,24.0,30.42,West,263,2.0,22.0,87,0.00,,,0.00,Wunderground v.1.15,2013-01-09 08:30:00,
2013-01-09 04:40:00,27.3,23.9,30.42,WSW,242,1.0,22.0,87,0.00,,,0.00,Wunderground v.1.15,2013-01-09 08:40:00,
2013-01-09 04:50:00,27.2,23.8,30.42,SW,229,2.0,22.0,87,0.00,,,0.00,Wunderground v.1.15,2013-01-09 08:50:00,
2013-01-09 05:00:00,27.2,23.8,30.42,SW,223,2.0,2.0,87,0.00,,,0.00,Wunderground v.1.15,2013-01-09 09:00:00,
2013-01-09 05:10:00,27.3,23.9,30.42,SW,225,2.0,22.0,87,0.00,,,0.00,Wunderground v.1.15,2013-01-09 09:10:00,
2013-01-09 05:20:00,27.3,23.7,30.43,WSW,250,2.0,22.0,86,0.00,,,0.00,Wunderground v.1.15,2013-01-09 09:20:00,
2013-01-09 05:30:00,27.1,23.5,30.44,West,265,1.0,22.0,86,0.00,,,0.00,Wunderground v.1.15,2013-01-09 09:30:00,
2013-01-09 05:40:00,26.9,23.5,30.43,West,262,1.0,22.0,87,0.00,,,0.00,Wunderground v.1.15,2013-01-09 09:40:00,
2013-01-09 05:50:00,26.9,23.3,30.44,SW,233,1.0,22.0,86,0.00,,,0.00,Wunderground v.1.15,2013-01-09 09:50:00,
2013-01-09 06:00:00,26.7,23.4,30.45,SW,228,1.0,22.0,87,0.00,,,0.00,Wunderground v.1.15,2013-01-09 10:00:00,
2013-01-09 06:10:00,26.6,23.3,30.44,WSW,239,2.0,2.0,87,0.00,,,0.00,Wunderground v.1.15,2013-01-09 10:10:00,
2013-01-09 06:20:00,26.5,23.2,30.45,WSW,237,1.0,22.0,87,0.00,,,0.00,Wunderground v.1.15,2013-01-09 10:20:00,
2013-01-09 06:30:00,26.3,23.0,30.45,South,172,0.0,22.0,87,0.00,,,0.00,Wunderground v.1.15,2013-01-09 10:30:00,
2013-01-09 06:40:00,25.9,22.6,30.46,SSW,197,1.0,22.0,87,0.00,,,0.00,Wunderground v.1.15,2013-01-09 10:40:00,
2013-01-09 06:50:00,25.3,22.0,30.46,South,189,1.0,22.0,87,0.00,,,0.00,Wunderground v.1.15,2013-01-09 10:50:00,
2013-01-09 07:00:00,24.4,21.4,30.46,SW,217,1.0,22.0,88,0.00,,,0.00,Wunderground v.1.15,2013-01-09 11:00:00,
2013-01-09 07:10:00,24.0,21.2,30.47,SSW,208,1.0,22.0,89,0.00,,,0.00,Wunderground v.1.15,2013-01-09 11:10:00,
2013-01-09 07:20:00,23.6,20.8,30.48,SW,215,1.0,1.0,89,0.00,,,0.00,Wunderground v.1.15,2013-01-09 11:20:00,
2013-01-09 07:30:00,22.7,20.2,30.48,SW,219,0.0,22.0,90,0.00,,,0.00,Wunderground v.1.15,2013-01-09 11:30:00,
2013-01-09 07:40:00,22.3,20.1,30.49,SE,142,1.0,22.0,91,0.00,,,0.00,Wunderground v.1.15,2013-01-09 11:40:00,
2013-01-09 07:50:00,22.2,19.7,30.49,South,183,1.0,1.0,90,0.00,,,0.00,Wunderground v.1.15,2013-01-09 11:50:00,
2013-01-09 08:00:00,21.8,19.6,30.50,SSW,203,1.0,22.0,91,0.00,,,0.00,Wunderground v.1.15,2013-01-09 12:00:00,
2013-01-09 08:10:00,21.7,19.5,30.50,SSE,150,1.0,22.0,91,0.00,,,0.00,Wunderground v.1.15,2013-01-09 12:10:00,
2013-01-09 08:20:00,21.9,19.9,30.50,SSE,148,0.0,22.0,92,0.00,,,0.00,Wunderground v.1.15,2013-01-09 12:20:00,
2013-01-09 08:30:00,21.9,19.4,30.51,SSW,201,1.0,22.0,90,0.00,,,0.00,Wunderground v.1.15,2013-01-09 12:30:00,
2013-01-09 08:40:00,22.8,20.3,30.51,South,188,2.0,22.0,90,0.00,,,0.00,Wunderground v.1.15,2013-01-09 12:40:00,
2013-01-09 08:50:00,23.6,20.8,30.51,South,190,2.0,22.0,89,0.00,,,0.00,Wunderground v.1.15,2013-01-09 12:50:00,
2013-01-09 09:00:00,24.2,21.2,30.52,SSW,195,2.0,2.0,88,0.00,,,0.00,Wunderground v.1.15,2013-01-09 13:00:00,
2013-01-09 09:10:00,25.1,22.0,30.53,South,176,2.0,22.0,88,0.00,,,0.00,Wunderground v.1.15,2013-01-09 13:10:00,
2013-01-09 09:20:00,25.7,22.1,30.53,SW,214,2.0,22.0,86,0.00,,,0.00,Wunderground v.1.15,2013-01-09 13:20:00,
2013-01-09 09:30:00,27.0,23.1,30.53,WSW,242,1.0,22.0,85,0.00,,,0.00,Wunderground v.1.15,2013-01-09 13:30:00,
2013-01-09 09:40:00,27.9,23.4,30.54,SW,229,1.0,22.0,83,0.00,,,0.00,Wunderground v.1.15,2013-01-09 13:40:00,
2013-01-09 09:50:00,29.1,23.7,30.54,South,186,1.0,22.0,80,0.00,,,0.00,Wunderground v.1.15,2013-01-09 13:50:00,
2013-01-09 10:00:00,29.8,24.4,30.54,SW,218,1.0,22.0,80,0.00,,,0.00,Wunderground v.1.15,2013-01-09 14:00:00,
2013-01-09 10:10:00,30.8,24.7,30.54,SW,226,1.0,1.0,78,0.00,,,0.00,Wunderground v.1.15,2013-01-09 14:10:00,
2013-01-09 10:20:00,31.2,24.8,30.54,WSW,240,2.0,22.0,77,0.00,,,0.00,Wunderground v.1.15,2013-01-09 14:20:00,
2013-01-09 10:30:00,31.9,25.2,30.54,ESE,121,1.0,22.0,76,0.00,,,0.00,Wunderground v.1.15,2013-01-09 14:30:00,
2013-01-09 10:40:00,32.1,25.4,30.53,SW,227,2.0,2.0,76,0.00,,,0.00,Wunderground v.1.15,2013-01-09 14:40:00,
2013-01-09 10:50:00,32.8,25.7,30.53,SW,226,1.0,1.0,75,0.00,,,0.00,Wunderground v.1.15,2013-01-09 14:50:00,
2013-01-09 11:00:00,33.1,25.4,30.52,WSW,238,1.0,22.0,73,0.00,,,0.00,Wunderground v.1.15,2013-01-09 15:00:00,
2013-01-09 11:10:00,33.4,25.7,30.51,SW,218,1.0,1.0,73,0.00,,,0.00,Wunderground v.1.15,2013-01-09 15:10:00,
2013-01-09 11:20:00,33.7,25.6,30.51,West,260,1.0,22.0,72,0.00,,,0.00,Wunderground v.1.15,2013-01-09 15:20:00,
2013-01-09 11:30:00,34.1,26.0,30.51,SSW,198,1.0,22.0,72,0.00,,,0.00,Wunderground v.1.15,2013-01-09 15:30:00,
2013-01-09 11:40:00,33.9,25.1,30.51,SW,236,1.0,22.0,70,0.00,,,0.01,Wunderground v.1.15,2013-01-09 15:40:00,
2013-01-09 11:50:00,34.1,25.3,30.50,North,11,1.0,22.0,70,0.00,,,0.01,Wunderground v.1.15,2013-01-09 15:50:00,
2013-01-09 12:00:00,34.0,24.9,30.49,SW,221,1.0,1.0,69,0.00,,,0.01,Wunderground v.1.15,2013-01-09 16:00:00,
2013-01-09 12:10:00,34.7,25.2,30.47,SW,215,0.0,22.0,68,0.00,,,0.02,Wunderground v.1.15,2013-01-09 16:10:00,
2013-01-09 12:20:00,35.0,25.5,30.46,SW,229,0.0,22.0,68,0.00,,,0.02,Wunderground v.1.15,2013-01-09 16:20:00,
2013-01-09 12:30:00,35.3,25.1,30.46,SSW,197,0.0,22.0,66,0.00,,,0.02,Wunderground v.1.15,2013-01-09 16:30:00,
2013-01-09 12:40:00,34.9,24.7,30.45,SSE,149,0.0,22.0,66,0.00,,,0.02,Wunderground v.1.15,2013-01-09 16:40:00,
2013-01-09 12:50:00,34.8,24.6,30.45,SSE,149,1.0,22.0,66,0.00,,,0.03,Wunderground v.1.15,2013-01-09 16:50:00,
2013-01-09 13:00:00,34.3,23.7,30.45,South,187,2.0,22.0,65,0.00,,,0.03,Wunderground v.1.15,2013-01-09 17:00:00,
2013-01-09 13:10:00,34.5,24.3,30.45,SSW,206,1.0,1.0,66,0.00,,,0.03,Wunderground v.1.15,2013-01-09 17:10:00,
2013-01-09 13:20:00,34.9,23.9,30.45,SSE,150,0.0,22.0,64,0.00,,,0.04,Wunderground v.1.15,2013-01-09 17:20:00,
2013-01-09 13:30:00,34.6,23.7,30.45,SW,215,0.0,22.0,64,0.00,,,0.04,Wunderground v.1.15,2013-01-09 17:30:00,
2013-01-09 13:40:00,34.9,23.9,30.44,SSW,193,0.0,22.0,64,0.00,,,0.04,Wunderground v.1.15,2013-01-09 17:40:00,
2013-01-09 13:50:00,35.1,24.1,30.44,East,87,0.0,22.0,64,0.00,,,0.05,Wunderground v.1.15,2013-01-09 17:50:00,
2013-01-09 14:00:00,32.8,24.4,30.44,ENE,63,0.0,22.0,71,0.00,,,0.05,Wunderground v.1.15,2013-01-09 18:00:00,
2013-01-09 14:10:00,32.5,24.8,30.43,ENE,67,0.0,22.0,73,0.00,,,0.05,Wunderground v.1.15,2013-01-09 18:10:00,
2013-01-09 14:20:00,33.4,25.3,30.43,NE,54,0.0,22.0,72,0.00,,,0.06,Wunderground v.1.15,2013-01-09 18:20:00,
2013-01-09 14:30:00,32.5,24.5,30.43,East,81,0.0,22.0,72,0.00,,,0.06,Wunderground v.1.15,2013-01-09 18:30:00,
2013-01-09 14:50:00,32.8,23.7,30.41,SE,145,3.0,22.0,69,0.00,,,0.06,Wunderground v.1.15,2013-01-09 18:50:00,
2013-01-09 15:00:00,32.5,23.5,30.40,South,177,3.0,22.0,69,0.00,,,0.06,Wunderground v.1.15,2013-01-09 19:00:00,
2013-01-09 15:10:00,32.3,23.6,30.39,South,184,4.0,22.0,70,0.00,,,0.06,Wunderground v.1.15,2013-01-09 19:10:00,
2013-01-09 15:20:00,31.4,23.1,30.38,South,173,3.0,3.0,71,0.00,,,0.06,Wunderground v.1.15,2013-01-09 19:20:00,
2013-01-09 15:30:00,30.5,23.2,30.39,SE,136,2.0,22.0,74,0.00,,,0.06,Wunderground v.1.15,2013-01-09 19:30:00,
2013-01-09 15:40:00,30.7,23.7,30.38,South,170,4.0,22.0,75,0.00,,,0.06,Wunderground v.1.15,2013-01-09 19:40:00,
2013-01-09 15:50:00,30.3,23.6,30.39,SSE,166,4.0,22.0,76,0.00,,,0.06,Wunderground v.1.15,2013-01-09 19:50:00,
2013-01-09 16:00:00,29.3,23.0,30.40,South,184,4.0,4.0,77,0.00,,,0.06,Wunderground v.1.15,2013-01-09 20:00:00,
2013-01-09 16:10:00,28.4,23.0,30.41,South,179,3.0,22.0,80,0.00,,,0.06,Wunderground v.1.15,2013-01-09 20:10:00,
2013-01-09 16:20:00,27.6,22.5,30.40,South,184,2.0,22.0,81,0.00,,,0.06,Wunderground v.1.15,2013-01-09 20:20:00,
2013-01-09 16:30:00,26.9,22.4,30.40,South,188,2.0,22.0,83,0.00,,,0.06,Wunderground v.1.15,2013-01-09 20:30:00,
2013-01-09 16:40:00,26.2,22.0,30.39,SE,146,1.0,1.0,84,0.00,,,0.06,Wunderground v.1.15,2013-01-09 20:40:00,
2013-01-09 16:50:00,25.3,21.4,30.39,SSE,149,0.0,22.0,85,0.00,,,0.06,Wunderground v.1.15,2013-01-09 20:50:00,
2013-01-09 17:00:00,24.5,21.2,30.37,SSE,150,0.0,22.0,87,0.00,,,0.06,Wunderground v.1.15,2013-01-09 21:00:00,
2013-01-09 17:10:00,24.0,21.0,30.37,SE,144,0.0,22.0,88,0.00,,,0.06,Wunderground v.1.15,2013-01-09 21:10:00,
2013-01-09 17:20:00,24.1,21.3,30.37,SE,129,1.0,1.0,89,0.00,,,0.06,Wunderground v.1.15,2013-01-09 21:20:00,
2013-01-09 17:30:00,24.3,21.5,30.35,ESE,106,1.0,1.0,89,0.00,,,0.06,Wunderground v.1.15,2013-01-09 21:30:00,
2013-01-09 17:40:00,24.2,21.4,30.33,SE,127,1.0,1.0,89,0.00,,,0.06,Wunderground v.1.15,2013-01-09 21:40:00,
2013-01-09 17:50:00,24.4,21.6,30.33,ESE,112,1.0,22.0,89,0.00,,,0.06,Wunderground v.1.15,2013-01-09 21:50:00,
2013-01-09 18:00:00,24.8,22.0,30.32,ESE,109,2.0,22.0,89,0.00,,,0.06,Wunderground v.1.15,2013-01-09 22:00:00,
2013-01-09 18:10:00,25.3,22.5,30.30,ESE,111,3.0,3.0,89,0.00,,,0.06,Wunderground v.1.15,2013-01-09 22:10:00,
2013-01-09 18:20:00,25.5,22.4,30.29,ESE,106,2.0,22.0,88,0.00,,,0.06,Wunderground v.1.15,2013-01-09 22:20:00,
2013-01-09 18:30:00,25.5,22.2,30.29,ESE,114,1.0,1.0,87,0.00,,,0.06,Wunderground v.1.15,2013-01-09 22:30:00,
2013-01-09 18:40:00,25.2,21.9,30.29,ESE,115,0.0,22.0,87,0.00,,,0.06,Wunderground v.1.15,2013-01-09 22:40:00,
2013-01-09 18:50:00,25.1,22.0,30.29,SE,146,0.0,22.0,88,0.00,,,0.06,Wunderground v.1.15,2013-01-09 22:50:00,
2013-01-09 19:00:00,25.1,22.0,30.29,SSE,164,0.0,22.0,88,0.00,,,0.06,Wunderground v.1.15,2013-01-09 23:00:00,
2013-01-09 19:10:00,25.6,22.5,30.29,SE,139,1.0,22.0,88,0.00,,,0.06,Wunderground v.1.15,2013-01-09 23:10:00,
2013-01-09 19:20:00,25.6,22.3,30.28,SE,143,1.0,22.0,87,0.00,,,0.06,Wunderground v.1.15,2013-01-09 23:20:00,
2013-01-09 19:30:00,25.6,22.3,30.28,SE,145,0.0,22.0,87,0.00,,,0.06,Wunderground v.1.15,2013-01-09 23:30:00,
2013-01-09 19:40:00,25.7,22.4,30.27,East,101,1.0,22.0,87,0.00,,,0.06,Wunderground v.1.15,2013-01-09 23:40:00,
2013-01-09 19:50:00,25.9,22.6,30.26,ESE,120,2.0,2.0,87,0.00,,,0.06,Wunderground v.1.15,2013-01-09 23:50:00,
2013-01-09 20:00:00,26.3,22.7,30.25,SSE,147,3.0,22.0,86,0.00,,,0.06,Wunderground v.1.15,2013-01-10 00:00:00,
2013-01-09 20:10:00,26.6,23.0,30.25,SSE,159,3.0,22.0,86,0.00,,,0.06,Wunderground v.1.15,2013-01-10 00:10:00,
2013-01-09 20:20:00,26.7,23.1,30.24,SE,133,2.0,22.0,86,0.00,,,0.06,Wunderground v.1.15,2013-01-10 00:20:00,
2013-01-09 20:30:00,26.9,23.3,30.23,ESE,103,2.0,22.0,86,0.00,,,0.06,Wunderground v.1.15,2013-01-10 00:30:00,
2013-01-09 20:40:00,27.2,23.6,30.23,East,98,3.0,22.0,86,0.00,,,0.06,Wunderground v.1.15,2013-01-10 00:40:00,
2013-01-09 20:50:00,27.2,23.8,30.23,SE,124,3.0,3.0,87,0.00,,,0.06,Wunderground v.1.15,2013-01-10 00:50:00,
2013-01-09 21:00:00,27.2,23.8,30.23,SE,141,2.0,22.0,87,0.00,,,0.06,Wunderground v.1.15,2013-01-10 01:00:00,
2013-01-09 21:10:00,27.1,24.0,30.21,ENE,70,2.0,22.0,88,0.00,,,0.06,Wunderground v.1.15,2013-01-10 01:10:00,
2013-01-09 21:20:00,27.3,24.2,30.21,SE,127,3.0,3.0,88,0.00,,,0.06,Wunderground v.1.15,2013-01-10 01:20:00,
2013-01-09 21:30:00,27.5,24.7,30.20,SSE,167,2.0,22.0,89,0.00,,,0.06,Wunderground v.1.15,2013-01-10 01:30:00,
2013-01-09 21:40:00,27.8,25.0,30.19,SE,125,3.0,22.0,89,0.00,,,0.06,Wunderground v.1.15,2013-01-10 01:40:00,
2013-01-09 21:50:00,28.0,25.4,30.17,SSE,155,2.0,22.0,90,0.00,,,0.06,Wunderground v.1.15,2013-01-10 01:50:00,
2013-01-09 22:00:00,28.4,25.8,30.14,ESE,112,4.0,22.0,90,0.00,,,0.06,Wunderground v.1.15,2013-01-10 02:00:00,
2013-01-09 22:10:00,28.7,26.1,30.14,SE,125,4.0,4.0,90,0.00,,,0.06,Wunderground v.1.15,2013-01-10 02:10:00,
2013-01-09 22:20:00,29.0,26.4,30.12,ESE,108,3.0,22.0,90,0.00,,,0.06,Wunderground v.1.15,2013-01-10 02:20:00,
2013-01-09 22:30:00,29.4,26.8,30.12,ESE,123,4.0,4.0,90,0.00,,,0.06,Wunderground v.1.15,2013-01-10 02:30:00,
2013-01-09 22:40:00,29.6,27.0,30.12,South,184,4.0,22.0,90,0.00,,,0.06,Wunderground v.1.15,2013-01-10 02:40:00,
2013-01-09 22:50:00,29.8,27.5,30.10,SE,139,4.0,4.0,91,0.00,,,0.06,Wunderground v.1.15,2013-01-10 02:50:00,
2013-01-09 23:00:00,29.9,27.6,30.10,SE,141,3.0,3.0,91,0.00,,,0.06,Wunderground v.1.15,2013-01-10 03:00:00,
2013-01-09 23:10:00,30.0,27.7,30.08,ESE,103,3.0,22.0,91,0.00,,,0.06,Wunderground v.1.15,2013-01-10 03:10:00,
2013-01-09 23:20:00,30.3,28.0,30.07,SSE,148,3.0,3.0,91,0.00,,,0.06,Wunderground v.1.15,2013-01-10 03:20:00,
2013-01-09 23:30:00,30.6,28.3,30.06,SE,132,3.0,22.0,91,0.00,,,0.06,Wunderground v.1.15,2013-01-10 03:30:00,
2013-01-09 23:40:00,30.9,28.6,30.04,ESE,105,3.0,22.0,91,0.00,,,0.06,Wunderground v.1.15,2013-01-10 03:40:00,
2013-01-09 23:50:00,31.0,28.9,30.03,ESE,108,3.0,22.0,92,0.00,,,0.06,Wunderground v.1.15,2013-01-10 03:50:00,